Etusivu
METAR-TAF:

METAR-TAF

Lentoasemat :

Örnsköldsvikin lentoasema

Örnsköldsvik, Ruotsi

Leveyspiiri: 63-24N, Pituuspiiri: 018-58E, korkeus merenpinnasta: 103 m

Tämänhetkinen sää

Tämä raportti tehtiin 30 minuuttia sitten, kello 13.20 UTC
Tuuli 6 kn etelästä, vaihdellen etelän/kaakon ja lounaan välillä
Lämpötila 18°C
Kosteus 39%
Ilmanpaine 1020 hPa
Näkyvyys 10 km tai enemmän
ei pilviä alle 1500 m:ssä eikä cumulonimbus-pilviä

METAR: ESNO 201320Z 19006KT 150V230 CAVOK 18/04 Q1020

Aika: 15:50 (13:50 UTC)


TAF: puuttuu

Säähavainnot ja -ennusteet yli 4000 lentoasemalta (METAR- ja TAF-raportit).

Käytössä olevat sääasemat on merkitty karttaan keltaisilla ja punaisilla pisteillä.

Aseta hiiri pisteen päälle nähdäksesi sääaseman nimen.

Klikkaa sitten nähdäksesi säähavainnot ja -ennusteet.

Kartan vaihtaminen: klikkaa mustalla rastilla varustettuja vihreitä pisteitä, niin voit zoomata sisään; viivalla varustettua vihreää pistettä, niin voit zoomata ulos tai vihreitä nuolia, niin pääset viereisille kartoille.


METAR-TAF: